createdAt,value
2023-06-07T00:00:29.885Z,94980.16
2023-06-07T00:03:18.327Z,94971.41
2023-06-07T00:05:46.682Z,94977.00
2023-06-07T00:08:14.459Z,94975.25
2023-06-07T00:10:41.848Z,94975.09
2023-06-07T00:13:09.527Z,94971.56
2023-06-07T00:15:37.016Z,94972.72
2023-06-07T00:18:04.995Z,94973.66
2023-06-07T00:20:33.052Z,94967.59
2023-06-07T00:23:03.181Z,94967.22
2023-06-07T00:25:30.706Z,94964.50
2023-06-07T00:28:01.074Z,94963.84
2023-06-07T00:30:28.507Z,94955.38
2023-06-07T00:32:56.300Z,94962.91
2023-06-07T00:35:23.926Z,94959.72
2023-06-07T00:37:51.627Z,94963.06
2023-06-07T00:40:19.193Z,94957.47
2023-06-07T00:42:46.974Z,94952.03
2023-06-07T00:45:14.468Z,94952.38
2023-06-07T00:47:42.710Z,94954.94
2023-06-07T00:50:10.938Z,94960.03
2023-06-07T00:52:39.461Z,94958.41
2023-06-07T00:55:09.637Z,94944.00
2023-06-07T00:57:37.548Z,94961.28
2023-06-07T01:00:11.247Z,94951.34
2023-06-07T01:02:39.186Z,94948.63
2023-06-07T01:05:08.072Z,94948.81
2023-06-07T01:07:35.936Z,94944.63
2023-06-07T01:10:04.859Z,94948.81
2023-06-07T01:12:37.028Z,94934.59
2023-06-07T01:15:05.266Z,94935.38
2023-06-07T01:17:39.006Z,94940.31
2023-06-07T01:20:28.452Z,94946.56
2023-06-07T01:23:00.092Z,94938.88
2023-06-07T01:25:27.849Z,94930.13
2023-06-07T01:27:58.479Z,94946.41
2023-06-07T01:30:26.499Z,94938.13
2023-06-07T01:32:54.728Z,94941.31
2023-06-07T01:35:22.619Z,94941.78
2023-06-07T01:37:52.500Z,94948.97
2023-06-07T01:40:22.846Z,94944.34
2023-06-07T01:42:54.876Z,94938.91
2023-06-07T01:45:25.599Z,94930.13
2023-06-07T01:47:55.056Z,94927.75
2023-06-07T01:50:25.620Z,94918.47
2023-06-07T01:52:54.003Z,94910.31
2023-06-07T01:55:25.521Z,94935.88
2023-06-07T01:58:35.525Z,94940.78
2023-06-07T02:01:30.184Z,94933.63
2023-06-07T02:04:01.534Z,94930.28
2023-06-07T02:06:36.056Z,94931.22
2023-06-07T02:09:08.523Z,94919.75
2023-06-07T02:11:39.303Z,94926.44
2023-06-07T02:14:10.166Z,94934.09
2023-06-07T02:16:37.936Z,94927.28
2023-06-07T02:19:10.707Z,94936.53
2023-06-07T02:21:50.247Z,94932.56
2023-06-07T02:24:19.017Z,94932.28
2023-06-07T02:26:46.568Z,94933.84
2023-06-07T02:29:15.193Z,94925.88
2023-06-07T02:31:42.630Z,94927.78
2023-06-07T02:34:10.606Z,94913.25
2023-06-07T02:36:41.117Z,94920.53
2023-06-07T02:39:09.951Z,94930.75
2023-06-07T02:41:37.565Z,94931.72
2023-06-07T02:44:05.508Z,94936.66
2023-06-07T02:46:32.957Z,94932.53
2023-06-07T02:49:00.937Z,94936.97
2023-06-07T02:51:30.136Z,94938.88
2023-06-07T02:53:58.039Z,94928.97
2023-06-07T02:56:30.561Z,94938.41
2023-06-07T02:58:58.575Z,94929.94
2023-06-07T03:01:32.533Z,94937.13
2023-06-07T03:04:01.016Z,94938.56
2023-06-07T03:06:30.870Z,94943.06
2023-06-07T03:09:05.388Z,94937.00
2023-06-07T03:11:34.511Z,94940.50
2023-06-07T03:14:02.307Z,94938.88
2023-06-07T03:16:37.114Z,94939.34
2023-06-07T03:19:07.446Z,94932.63
2023-06-07T03:21:34.943Z,94935.00
2023-06-07T03:24:06.791Z,94935.19
2023-06-07T03:26:34.575Z,94940.16
2023-06-07T03:29:03.662Z,94941.41
2023-06-07T03:31:35.329Z,94938.53
2023-06-07T03:34:07.448Z,94934.88
2023-06-07T03:36:37.267Z,94943.59
2023-06-07T03:39:05.382Z,94944.88
2023-06-07T03:41:33.094Z,94935.31
2023-06-07T03:44:06.042Z,94944.88
2023-06-07T03:46:33.843Z,94948.38
2023-06-07T03:49:01.457Z,94946.94
2023-06-07T03:51:29.437Z,94940.38
2023-06-07T03:54:01.008Z,94951.03
2023-06-07T03:56:29.074Z,94943.34
2023-06-07T03:58:56.824Z,94951.31
2023-06-07T04:01:27.211Z,94955.78
2023-06-07T04:03:57.819Z,94954.47
2023-06-07T04:06:29.135Z,94955.25
2023-06-07T04:08:58.474Z,94951.53
2023-06-07T04:11:28.565Z,94946.09
2023-06-07T04:13:56.928Z,94949.84
2023-06-07T04:16:28.178Z,94953.38
2023-06-07T04:18:55.965Z,94947.81
2023-06-07T04:21:24.127Z,94953.50
2023-06-07T04:23:52.412Z,94955.53
2023-06-07T04:26:24.220Z,94942.50
2023-06-07T04:28:52.911Z,94951.28
2023-06-07T04:31:30.766Z,94945.97
2023-06-07T04:34:08.596Z,94942.13
2023-06-07T04:36:38.741Z,94947.19
2023-06-07T04:39:11.664Z,94956.63
2023-06-07T04:41:44.065Z,94942.78
2023-06-07T04:44:14.026Z,94956.44
2023-06-07T04:46:45.382Z,94955.09
2023-06-07T04:49:18.608Z,94959.41
2023-06-07T04:51:49.899Z,94956.50
2023-06-07T04:54:19.614Z,94950.75
2023-06-07T04:56:54.428Z,94955.41
2023-06-07T04:59:26.173Z,94951.13
2023-06-07T05:01:53.648Z,94952.47
2023-06-07T05:04:22.490Z,94964.13
2023-06-07T05:07:00.139Z,94955.72
2023-06-07T05:09:32.244Z,94955.78
2023-06-07T05:12:03.893Z,94946.47
2023-06-07T05:14:33.008Z,94945.66
2023-06-07T05:17:01.383Z,94949.25
2023-06-07T05:19:32.817Z,94955.06
2023-06-07T05:22:00.416Z,94959.78
2023-06-07T05:24:28.215Z,94958.66
2023-06-07T05:26:56.284Z,94960.47
2023-06-07T05:29:24.025Z,94956.47
2023-06-07T05:31:52.463Z,94953.31
2023-06-07T05:34:20.504Z,94961.97
2023-06-07T05:36:47.974Z,94972.19
2023-06-07T05:39:16.007Z,94967.66
2023-06-07T05:41:44.236Z,94964.00
2023-06-07T05:44:12.260Z,94966.28
2023-06-07T05:46:39.850Z,94966.72
2023-06-07T05:49:07.803Z,94964.13
2023-06-07T05:51:36.032Z,94967.28
2023-06-07T05:54:03.922Z,94966.94
2023-06-07T05:56:31.426Z,94971.63
2023-06-07T05:58:59.348Z,94958.72
2023-06-07T06:01:27.888Z,94963.91
2023-06-07T06:03:55.735Z,94965.16
2023-06-07T06:06:25.400Z,94972.78
2023-06-07T06:08:53.104Z,94963.69
2023-06-07T06:11:20.665Z,94960.63
2023-06-07T06:13:49.882Z,94954.38
2023-06-07T06:16:17.295Z,94962.13
2023-06-07T06:18:45.194Z,94956.66
2023-06-07T06:21:13.095Z,94969.38
2023-06-07T06:23:41.028Z,94965.19
2023-06-07T06:26:08.493Z,94967.47
2023-06-07T06:28:36.228Z,94968.94
2023-06-07T06:31:05.186Z,94963.72
2023-06-07T06:33:33.118Z,94972.13
2023-06-07T06:36:01.324Z,94959.47
2023-06-07T06:38:29.102Z,94961.91
2023-06-07T06:40:56.620Z,94963.28
2023-06-07T06:43:25.061Z,94960.75
2023-06-07T06:45:58.998Z,94939.78
2023-06-07T06:48:28.966Z,94947.66
2023-06-07T06:50:58.400Z,94948.88
2023-06-07T06:53:27.180Z,94962.41
2023-06-07T06:55:55.557Z,94937.50
2023-06-07T06:58:24.639Z,94958.44
2023-06-07T07:00:52.945Z,94954.78
2023-06-07T07:03:22.597Z,94966.88
2023-06-07T07:05:51.180Z,94942.00
2023-06-07T07:08:20.087Z,94942.63
2023-06-07T07:10:51.594Z,94939.88
2023-06-07T07:13:19.878Z,94934.72
2023-06-07T07:15:49.682Z,94968.94
2023-06-07T07:18:21.190Z,94950.56
2023-06-07T07:20:51.265Z,94942.91
2023-06-07T07:23:19.542Z,94965.72
2023-06-07T07:25:47.378Z,94962.38
2023-06-07T07:28:15.697Z,94962.47
2023-06-07T07:30:43.302Z,94965.94
2023-06-07T07:33:11.022Z,94965.78
2023-06-07T07:35:38.438Z,94971.16
2023-06-07T07:38:07.843Z,94971.31
2023-06-07T07:40:35.130Z,94967.75
2023-06-07T07:43:02.806Z,94974.84
2023-06-07T07:45:30.235Z,94970.66
2023-06-07T07:47:58.107Z,94962.25
2023-06-07T07:50:25.527Z,94969.91
2023-06-07T07:52:55.051Z,94969.69
2023-06-07T07:55:24.953Z,94978.00
2023-06-07T07:57:52.490Z,94974.75
2023-06-07T08:00:20.235Z,94973.94
2023-06-07T08:02:48.692Z,94965.19
2023-06-07T08:05:16.141Z,94979.03
2023-06-07T08:07:43.949Z,94972.19
2023-06-07T08:10:11.776Z,94977.53
2023-06-07T08:12:40.909Z,94971.03
2023-06-07T08:15:10.215Z,94972.34
2023-06-07T08:17:38.006Z,94946.47
2023-06-07T08:20:07.506Z,94975.88
2023-06-07T08:22:39.118Z,94974.22
2023-06-07T08:25:07.248Z,94965.00
2023-06-07T08:27:34.870Z,94974.59
2023-06-07T08:30:02.807Z,94981.44
2023-06-07T08:32:30.903Z,94981.44
2023-06-07T08:34:58.397Z,94969.53
2023-06-07T08:37:26.154Z,94975.31
2023-06-07T08:39:53.605Z,94971.91
2023-06-07T08:42:21.323Z,94945.03
2023-06-07T08:44:48.831Z,94963.22
2023-06-07T08:47:18.588Z,94973.13
2023-06-07T08:49:47.708Z,94977.28
2023-06-07T08:52:17.396Z,94974.41
2023-06-07T08:54:48.596Z,94970.72
2023-06-07T08:57:18.595Z,94971.91
2023-06-07T08:59:47.746Z,94972.53
2023-06-07T09:02:16.553Z,94974.78
2023-06-07T09:04:45.006Z,94978.16
2023-06-07T09:07:13.836Z,94978.50
2023-06-07T09:09:43.104Z,94977.75
2023-06-07T09:12:14.531Z,94967.44
2023-06-07T09:14:42.395Z,94980.13
2023-06-07T09:17:10.372Z,94972.75
2023-06-07T09:19:41.846Z,94968.78
2023-06-07T09:22:18.557Z,94969.94
2023-06-07T09:24:46.001Z,94967.72
2023-06-07T09:27:14.732Z,94950.72
2023-06-07T09:29:44.644Z,94962.56
2023-06-07T09:32:25.257Z,94972.41
2023-06-07T09:34:56.143Z,94960.34
2023-06-07T09:37:42.369Z,94972.41
2023-06-07T09:40:09.928Z,94970.72
2023-06-07T09:42:38.356Z,94965.38
2023-06-07T09:45:17.182Z,94952.53
2023-06-07T09:47:45.330Z,94959.94
2023-06-07T09:50:14.564Z,94963.09
2023-06-07T09:52:43.665Z,94969.34
2023-06-07T09:55:27.907Z,94962.97
2023-06-07T09:57:59.465Z,94963.72
2023-06-07T10:00:27.754Z,94946.47
2023-06-07T10:03:07.388Z,94960.19
2023-06-07T10:05:35.764Z,94955.41
2023-06-07T10:08:04.850Z,94950.09
2023-06-07T10:10:36.371Z,94960.53
2023-06-07T10:13:07.325Z,94956.94
2023-06-07T10:15:36.993Z,94950.28
2023-06-07T10:18:26.188Z,94945.34
2023-06-07T10:21:03.400Z,94938.50
2023-06-07T10:24:03.958Z,94939.13
2023-06-07T10:26:50.097Z,94934.06
2023-06-07T10:29:39.915Z,94932.81
2023-06-07T10:32:13.738Z,94925.16
2023-06-07T10:34:42.979Z,94925.84
2023-06-07T10:37:11.413Z,94909.56
2023-06-07T10:39:39.817Z,94924.97
2023-06-07T10:42:08.181Z,94907.19
2023-06-07T10:44:38.424Z,94908.25
2023-06-07T10:47:23.897Z,94912.13
2023-06-07T10:49:52.467Z,94899.84
2023-06-07T10:52:20.094Z,94898.06
2023-06-07T10:54:48.243Z,94900.81
2023-06-07T10:57:15.817Z,94901.56
2023-06-07T10:59:44.184Z,94910.25
2023-06-07T11:02:25.314Z,94904.06
2023-06-07T11:05:01.399Z,94877.50
2023-06-07T11:07:34.183Z,94896.84
2023-06-07T11:10:08.914Z,94894.06
2023-06-07T11:12:37.314Z,94891.31
2023-06-07T11:15:26.397Z,94906.94
2023-06-07T11:18:06.749Z,94893.00
2023-06-07T11:20:40.763Z,94886.44
2023-06-07T11:23:28.696Z,94894.38
2023-06-07T11:26:04.438Z,94896.06
2023-06-07T11:28:34.882Z,94900.22
2023-06-07T11:31:08.003Z,94907.13
2023-06-07T11:33:37.611Z,94905.56
2023-06-07T11:36:10.900Z,94901.16
2023-06-07T11:38:39.373Z,94910.81
2023-06-07T11:41:07.870Z,94908.63
2023-06-07T11:43:35.550Z,94916.34
2023-06-07T11:46:03.322Z,94902.66
2023-06-07T11:48:32.062Z,94893.63
2023-06-07T11:51:02.309Z,94901.31
2023-06-07T11:53:30.795Z,94899.41
2023-06-07T11:56:00.105Z,94904.56
2023-06-07T11:58:28.002Z,94897.41
2023-06-07T12:00:57.918Z,94899.56
2023-06-07T12:03:26.929Z,94896.75
2023-06-07T12:05:55.413Z,94896.56
2023-06-07T12:08:24.132Z,94896.50
2023-06-07T12:10:56.241Z,94889.28
2023-06-07T12:13:24.903Z,94900.41
2023-06-07T12:15:57.821Z,94902.59
2023-06-07T12:18:31.411Z,94900.59
2023-06-07T12:21:07.267Z,94870.53
2023-06-07T12:23:38.674Z,94888.00
2023-06-07T12:26:11.483Z,94901.56
2023-06-07T12:28:44.610Z,94894.31
2023-06-07T12:31:23.747Z,94898.22
2023-06-07T12:34:08.181Z,94888.69
2023-06-07T12:36:39.327Z,94886.59
2023-06-07T12:39:13.848Z,94897.00
2023-06-07T12:41:41.843Z,94891.63
2023-06-07T12:44:11.075Z,94881.25
2023-06-07T12:46:41.295Z,94880.91
2023-06-07T12:49:08.806Z,94882.78
2023-06-07T12:51:38.052Z,94885.25
2023-06-07T12:54:05.748Z,94889.22
2023-06-07T12:56:33.770Z,94888.16
2023-06-07T12:59:03.871Z,94891.72
2023-06-07T13:01:32.596Z,94893.56
2023-06-07T13:04:01.959Z,94889.66
2023-06-07T13:06:30.376Z,94886.22
2023-06-07T13:09:08.832Z,94890.91
2023-06-07T13:11:38.901Z,94896.13
2023-06-07T13:14:06.987Z,94898.16
2023-06-07T13:16:35.754Z,94890.66
2023-06-07T13:19:03.784Z,94896.03
2023-06-07T13:21:31.920Z,94897.44
2023-06-07T13:23:59.680Z,94905.22
2023-06-07T13:26:27.708Z,94907.84
2023-06-07T13:28:55.179Z,94906.63
2023-06-07T13:31:23.063Z,94910.41
2023-06-07T13:33:50.924Z,94906.53
2023-06-07T13:36:18.891Z,94907.53
2023-06-07T13:38:46.972Z,94898.91
2023-06-07T13:41:14.728Z,94903.34
2023-06-07T13:46:13.013Z,94890.88
2023-06-07T13:48:42.754Z,94904.19
2023-06-07T13:51:13.550Z,94890.88
2023-06-07T13:53:42.647Z,94896.66
2023-06-07T13:56:11.672Z,94905.47
2023-06-07T13:58:39.428Z,94907.09
2023-06-07T14:01:07.440Z,94914.13
2023-06-07T14:03:36.418Z,94913.66
2023-06-07T14:06:04.607Z,94905.91
2023-06-07T14:08:32.628Z,94903.09
2023-06-07T14:11:01.626Z,94912.19
2023-06-07T14:13:29.472Z,94921.59
2023-06-07T14:15:57.600Z,94921.59
2023-06-07T14:18:26.584Z,94919.16
2023-06-07T14:20:54.549Z,94903.34
2023-06-07T14:23:22.022Z,94912.03
2023-06-07T14:25:49.762Z,94920.28
2023-06-07T14:28:19.371Z,94923.16
2023-06-07T14:30:48.035Z,94931.56
2023-06-07T14:33:15.636Z,94926.66
2023-06-07T14:35:43.695Z,94932.88
2023-06-07T14:38:11.163Z,94918.03
2023-06-07T14:40:39.122Z,94937.03
2023-06-07T14:43:06.699Z,94938.50
2023-06-07T14:45:34.761Z,94938.78
2023-06-07T14:48:06.173Z,94934.41
2023-06-07T14:50:34.411Z,94939.38
2023-06-07T14:53:02.017Z,94938.47
2023-06-07T14:55:30.003Z,94948.38
2023-06-07T14:58:00.805Z,94934.41
2023-06-07T15:00:32.583Z,94947.47
2023-06-07T15:03:00.320Z,94949.38
2023-06-07T15:05:29.285Z,94937.78
2023-06-07T15:08:00.110Z,94942.28
2023-06-07T15:10:29.969Z,94946.38
2023-06-07T15:12:59.671Z,94927.59
2023-06-07T15:15:34.131Z,94939.59
2023-06-07T15:18:09.460Z,94952.91
2023-06-07T15:20:41.574Z,94932.69
2023-06-07T15:23:10.266Z,94931.44
2023-06-07T15:25:39.036Z,94927.94
2023-06-07T15:28:06.764Z,94934.00
2023-06-07T15:30:34.750Z,94940.06
2023-06-07T15:33:02.285Z,94941.69
2023-06-07T15:35:30.088Z,94944.28
2023-06-07T15:37:57.997Z,94945.22
2023-06-07T15:40:25.971Z,94952.63
2023-06-07T15:42:53.482Z,94949.19
2023-06-07T15:45:21.277Z,94953.06
2023-06-07T15:48:05.245Z,94945.09
2023-06-07T15:50:33.358Z,94960.22
2023-06-07T15:53:02.981Z,94957.56
2023-06-07T15:55:31.021Z,94948.41
2023-06-07T15:57:59.048Z,94942.91
2023-06-07T16:00:37.855Z,94957.88
2023-06-07T16:03:07.047Z,94946.50
2023-06-07T16:05:35.031Z,94946.88
2023-06-07T16:08:12.222Z,94953.78
2023-06-07T16:10:41.856Z,94952.56
2023-06-07T16:13:09.362Z,94950.47
2023-06-07T16:15:37.709Z,94956.44
2023-06-07T16:18:06.533Z,94950.91
2023-06-07T16:20:34.499Z,94947.13
2023-06-07T16:23:02.030Z,94949.00
2023-06-07T16:25:30.241Z,94944.78
2023-06-07T16:27:57.834Z,94950.09
2023-06-07T16:30:26.831Z,94952.16
2023-06-07T16:32:55.421Z,94943.22
2023-06-07T16:35:23.469Z,94947.75
2023-06-07T16:37:51.050Z,94947.25
2023-06-07T16:40:18.914Z,94944.09
2023-06-07T16:42:47.450Z,94944.22
2023-06-07T16:45:15.452Z,94951.13
2023-06-07T16:47:42.937Z,94943.06
2023-06-07T16:50:13.396Z,94950.19
2023-06-07T16:52:40.900Z,94943.63
2023-06-07T16:55:09.229Z,94953.22
2023-06-07T16:57:40.021Z,94920.75
2023-06-07T17:00:09.300Z,94948.34
2023-06-07T17:02:37.086Z,94933.84
2023-06-07T17:05:05.276Z,94931.56
2023-06-07T17:07:32.792Z,94920.03
2023-06-07T17:10:00.631Z,94932.38
2023-06-07T17:12:29.447Z,94929.53
2023-06-07T17:14:57.395Z,94930.53
2023-06-07T17:17:25.134Z,94919.03
2023-06-07T17:19:53.428Z,94927.03
2023-06-07T17:22:20.891Z,94927.78
2023-06-07T17:24:48.758Z,94919.09
2023-06-07T17:27:16.456Z,94926.88
2023-06-07T17:29:44.270Z,94915.53
2023-06-07T17:32:11.959Z,94915.91
2023-06-07T17:34:39.739Z,94913.81
2023-06-07T17:37:08.804Z,94923.28
2023-06-07T17:39:36.706Z,94927.13
2023-06-07T17:42:04.507Z,94920.06
2023-06-07T17:44:32.382Z,94926.72
2023-06-07T17:46:59.753Z,94925.28
2023-06-07T17:49:27.838Z,94927.94
2023-06-07T17:51:58.373Z,94919.97
2023-06-07T17:54:28.581Z,94926.47
2023-06-07T17:56:56.248Z,94917.44
2023-06-07T17:59:26.069Z,94919.56
2023-06-07T18:01:56.978Z,94926.69
2023-06-07T18:04:26.274Z,94922.84
2023-06-07T18:06:54.554Z,94907.09
2023-06-07T18:09:22.608Z,94914.75
2023-06-07T18:11:50.701Z,94926.91
2023-06-07T18:14:18.858Z,94931.19
2023-06-07T18:16:46.905Z,94925.41
2023-06-07T18:19:15.302Z,94932.41
2023-06-07T18:21:43.291Z,94929.66
2023-06-07T18:24:11.749Z,94928.28
2023-06-07T18:26:39.780Z,94934.22
2023-06-07T18:29:08.044Z,94937.09
2023-06-07T18:31:36.126Z,94932.44
2023-06-07T18:34:04.504Z,94941.22
2023-06-07T18:36:32.174Z,94938.78
2023-06-07T18:39:00.857Z,94943.94
2023-06-07T18:41:28.487Z,94949.13
2023-06-07T18:43:58.607Z,94947.03
2023-06-07T18:46:26.219Z,94950.53
2023-06-07T18:48:54.418Z,94954.66
2023-06-07T18:51:22.978Z,94947.47
2023-06-07T18:53:51.901Z,94920.97
2023-06-07T18:56:20.153Z,94949.75
2023-06-07T18:58:49.397Z,94950.25
2023-06-07T19:01:16.924Z,94958.59
2023-06-07T19:03:45.455Z,94954.50
2023-06-07T19:06:14.044Z,94961.97
2023-06-07T19:08:45.686Z,94969.81
2023-06-07T19:11:13.182Z,94970.91
2023-06-07T19:13:41.722Z,94969.47
2023-06-07T19:16:09.139Z,94972.22
2023-06-07T19:18:38.711Z,94970.44
2023-06-07T19:21:06.874Z,94972.69
2023-06-07T19:23:34.937Z,94973.16
2023-06-07T19:26:03.067Z,94970.78
2023-06-07T19:28:31.980Z,94966.81
2023-06-07T19:31:00.339Z,94966.66
2023-06-07T19:33:29.740Z,94964.78
2023-06-07T19:35:57.195Z,94968.25
2023-06-07T19:38:26.345Z,94952.47
2023-06-07T19:40:53.955Z,94966.84
2023-06-07T19:43:21.956Z,94966.22
2023-06-07T19:45:49.573Z,94971.19
2023-06-07T19:48:18.444Z,94972.94
2023-06-07T19:50:45.895Z,94959.97
2023-06-07T19:53:13.852Z,94968.47
2023-06-07T19:55:41.992Z,94969.28
2023-06-07T19:58:10.974Z,94967.50
2023-06-07T20:00:39.370Z,94965.75
2023-06-07T20:03:07.471Z,94966.25
2023-06-07T20:05:35.738Z,94970.59
2023-06-07T20:08:08.910Z,94970.59
2023-06-07T20:10:37.065Z,94965.81
2023-06-07T20:13:05.018Z,94965.16
2023-06-07T20:15:32.472Z,94972.19
2023-06-07T20:18:01.404Z,94961.47
2023-06-07T20:20:29.082Z,94963.22
2023-06-07T20:22:56.905Z,94962.44
2023-06-07T20:25:25.841Z,94968.16
2023-06-07T20:27:53.684Z,94965.44
2023-06-07T20:30:21.852Z,94964.13
2023-06-07T20:32:49.834Z,94953.63
2023-06-07T20:35:17.393Z,94961.13
2023-06-07T20:37:45.142Z,94967.16
2023-06-07T20:40:13.419Z,94958.06
2023-06-07T20:42:43.200Z,94968.84
2023-06-07T20:45:11.891Z,94964.69
2023-06-07T20:47:40.161Z,94961.31
2023-06-07T20:50:10.648Z,94961.31
2023-06-07T20:52:38.534Z,94958.25
2023-06-07T20:55:06.572Z,94958.69
2023-06-07T20:57:34.076Z,94962.53
2023-06-07T21:00:05.146Z,94963.06
2023-06-07T21:02:35.846Z,94955.78
2023-06-07T21:05:04.499Z,94965.16
2023-06-07T21:07:32.270Z,94953.81
2023-06-07T21:10:00.358Z,94963.09
2023-06-07T21:12:27.873Z,94958.75
2023-06-07T21:14:57.753Z,94963.53
2023-06-07T21:17:26.074Z,94950.75
2023-06-07T21:19:54.157Z,94957.66
2023-06-07T21:22:21.541Z,94958.13
2023-06-07T21:24:49.233Z,94965.31
2023-06-07T21:27:17.153Z,94967.69
2023-06-07T21:29:44.888Z,94974.59
2023-06-07T21:32:12.368Z,94971.06
2023-06-07T21:34:40.049Z,94971.53
2023-06-07T21:37:07.662Z,94968.63
2023-06-07T21:39:35.551Z,94959.34
2023-06-07T21:42:03.724Z,94963.84
2023-06-07T21:44:31.581Z,94975.69
2023-06-07T21:46:58.986Z,94967.91
2023-06-07T21:49:26.728Z,94966.44
2023-06-07T21:51:54.101Z,94968.06
2023-06-07T21:54:21.948Z,94968.19
2023-06-07T21:56:49.419Z,94965.81
2023-06-07T21:59:17.128Z,94959.72
2023-06-07T22:01:44.641Z,94967.25
2023-06-07T22:04:12.515Z,94970.31
2023-06-07T22:06:40.028Z,94969.34
2023-06-07T22:09:07.756Z,94964.88
2023-06-07T22:11:35.201Z,94967.09
2023-06-07T22:14:04.084Z,94958.28
2023-06-07T22:16:35.453Z,94952.38
2023-06-07T22:19:03.310Z,94957.69
2023-06-07T22:21:31.659Z,94959.44
2023-06-07T22:23:59.447Z,94949.69
2023-06-07T22:26:30.548Z,94949.84
2023-06-07T22:29:01.533Z,94950.66
2023-06-07T22:31:33.238Z,94964.41
2023-06-07T22:34:10.524Z,94965.97
2023-06-07T22:36:44.145Z,94958.47
2023-06-07T22:39:13.296Z,94954.00
2023-06-07T22:41:41.923Z,94957.03
2023-06-07T22:44:10.737Z,94955.59
2023-06-07T22:46:39.172Z,94955.28
2023-06-07T22:49:07.099Z,94947.94
2023-06-07T22:51:34.929Z,94940.72
2023-06-07T22:54:03.851Z,94946.81
2023-06-07T22:56:32.153Z,94941.53
2023-06-07T22:58:59.947Z,94946.16
2023-06-07T23:01:30.874Z,94943.63
2023-06-07T23:03:58.835Z,94945.38
2023-06-07T23:06:32.638Z,94949.06
2023-06-07T23:09:02.493Z,94942.91
2023-06-07T23:11:30.476Z,94936.19
2023-06-07T23:14:01.413Z,94935.25
2023-06-07T23:16:29.530Z,94944.22
2023-06-07T23:18:58.459Z,94933.34
2023-06-07T23:21:27.010Z,94927.13
2023-06-07T23:23:54.787Z,94937.69
2023-06-07T23:26:23.534Z,94936.41
2023-06-07T23:28:51.366Z,94939.63
2023-06-07T23:31:18.822Z,94943.13
2023-06-07T23:33:46.646Z,94935.59
2023-06-07T23:36:16.400Z,94938.78
2023-06-07T23:38:45.382Z,94942.44
2023-06-07T23:41:13.723Z,94935.75
2023-06-07T23:43:41.589Z,94947.28
2023-06-07T23:46:09.052Z,94940.56
2023-06-07T23:48:40.321Z,94936.88
2023-06-07T23:51:07.741Z,94943.13
2023-06-07T23:53:35.577Z,94936.56
2023-06-07T23:56:02.990Z,94926.50
2023-06-07T23:58:31.217Z,94930.31
